Time;durP1;ratioP1;P1;durP2;ratioP2;P2;SDS_P1;SDS_P2;PMS_P1;PMS_P2;Temp;Humidity;BMP_temperature;BMP_pressure;BME280_temperature;BME280_humidity;BME280_pressure;Samples;Min_cycle;Max_cycle;Signal;HPM_P1;HPM_P2
2022/03/19 00:11:16;;;;;;;7.23;3.67;;;;;;;-3.92;66.72;102820.44;31508678;28;20060;-77
2022/03/19 00:26:19;;;;;;;8.67;4.70;;;;;;;-4.03;66.59;102824.91;31553649;28;20438;-78
2022/03/19 00:41:21;;;;;;;12.80;5.30;;;;;;;-4.18;67.08;102820.25;31551706;28;20563;-77
2022/03/19 00:56:23;;;;;;;9.87;5.37;;;;;;;-4.26;66.15;102809.31;31502017;28;20559;-79
2022/03/19 01:11:26;;;;;;;10.80;5.40;;;;;;;-4.50;66.73;102809.66;31481485;28;20082;-78
2022/03/19 01:26:28;;;;;;;16.83;4.57;;;;;;;-4.56;66.65;102815.16;31503453;28;20059;-77
2022/03/19 01:42:04;;;;;;;10.17;4.53;;;;;;;-4.61;65.41;102826.50;31496835;28;20096;-78
2022/03/19 01:57:07;;;;;;;9.23;4.50;;;;;;;-4.82;66.68;102822.03;31470878;28;20144;-77
2022/03/19 02:12:10;;;;;;;8.67;4.97;;;;;;;-4.89;67.69;102842.59;31492907;28;20155;-78
2022/03/19 02:27:12;;;;;;;7.10;5.10;;;;;;;-4.81;66.75;102845.63;31504696;28;20128;-81
2022/03/19 02:42:19;;;;;;;8.73;4.87;;;;;;;-5.04;67.97;102847.75;31492704;28;20531;-77
2022/03/19 02:57:21;;;;;;;10.67;5.60;;;;;;;-5.15;68.56;102849.44;31491223;28;20056;-79
2022/03/19 03:12:24;;;;;;;9.30;5.43;;;;;;;-5.20;69.83;102852.84;31493612;28;20132;-78
2022/03/19 03:27:26;;;;;;;20.13;5.73;;;;;;;-5.20;68.62;102863.44;31512430;28;20049;-78
2022/03/19 03:42:28;;;;;;;12.43;6.27;;;;;;;-5.19;68.58;102867.66;31511309;28;20071;-81
2022/03/19 03:57:31;;;;;;;6.63;5.07;;;;;;;-5.15;68.79;102876.72;31508770;28;20060;-78
2022/03/19 04:12:33;;;;;;;19.50;6.10;;;;;;;-5.27;66.57;102893.78;31507470;28;20587;-79
2022/03/19 04:27:36;;;;;;;9.23;6.47;;;;;;;-5.35;68.68;102895.00;31509703;28;20496;-79
2022/03/19 04:42:57;;;;;;;16.13;6.23;;;;;;;-4.74;66.91;102895.81;31505941;28;20044;-79
2022/03/19 04:57:59;;;;;;;7.90;5.67;;;;;;;-4.16;63.58;102899.59;31502636;28;20056;-78
2022/03/19 05:13:03;;;;;;;11.00;5.57;;;;;;;-3.46;60.91;102904.69;31501885;28;20575;-80
2022/03/19 05:28:05;;;;;;;9.93;5.60;;;;;;;-2.86;58.31;102902.63;31524048;28;20044;-79
2022/03/19 05:43:25;;;;;;;18.83;6.17;;;;;;;-1.87;53.94;102910.28;31624818;28;20183;-80
2022/03/19 05:58:28;;;;;;;12.53;5.57;;;;;;;-0.94;51.81;102911.75;31622742;28;20521;-78
2022/03/19 06:30:06;;;;;;;10.00;4.97;;;;;;;1.29;46.37;102926.03;31495466;28;20493;-80
2022/03/19 06:45:08;;;;;;;7.20;4.73;;;;;;;2.59;44.28;102900.22;31496926;28;20051;-80
2022/03/19 07:00:11;;;;;;;9.07;4.70;;;;;;;2.85;41.62;102903.19;31515949;28;20056;-79
2022/03/19 07:15:15;;;;;;;12.37;4.33;;;;;;;3.82;38.46;102888.50;31516748;28;20131;-79
2022/03/19 07:30:17;;;;;;;5.83;3.40;;;;;;;4.05;37.10;102887.41;31514601;28;20250;-79
2022/03/19 07:45:20;;;;;;;8.40;3.60;;;;;;;4.64;34.30;102873.81;31514922;28;20055;-79
2022/03/19 08:00:22;;;;;;;6.60;3.23;;;;;;;5.26;32.12;102865.59;31505243;28;20439;-79
2022/03/19 08:15:44;;;;;;;6.43;2.63;;;;;;;6.14;30.69;102858.00;31508648;28;20143;-78
2022/03/19 08:31:24;;;;;;;4.80;3.07;;;;;;;6.88;28.89;102849.44;31503122;28;20072;-80
2022/03/19 08:46:28;;;;;;;8.50;3.43;;;;;;;6.45;29.34;102852.31;31500989;28;20071;-78
2022/03/19 09:01:31;;;;;;;12.47;3.83;;;;;;;6.27;28.71;102837.31;31494898;28;20060;-78
2022/03/19 09:16:35;;;;;;;2.90;2.37;;;;;;;7.53;26.70;102826.41;31486694;28;20061;-77
2022/03/19 09:31:37;;;;;;;5.00;2.73;;;;;;;7.66;26.26;102809.13;31503568;28;20058;-80
2022/03/19 09:46:41;;;;;;;6.63;3.60;;;;;;;8.15;25.99;102814.66;31492890;28;20086;-79
2022/03/19 10:01:45;;;;;;;7.43;2.70;;;;;;;8.38;23.92;102796.09;31508156;28;20125;-79
2022/03/19 10:16:51;;;;;;;5.37;2.40;;;;;;;8.72;22.27;102784.03;31498188;28;20123;-78
2022/03/19 10:31:59;;;;;;;3.90;2.07;;;;;;;8.58;21.92;102768.13;31456534;28;20048;-78
2022/03/19 10:47:03;;;;;;;4.43;2.80;;;;;;;8.85;22.59;102761.19;31436701;28;20044;-84
2022/03/19 11:02:06;;;;;;;3.67;2.13;;;;;;;8.58;21.05;102751.88;31452478;28;20052;-84
2022/03/19 11:17:30;;;;;;;4.63;2.20;;;;;;;8.64;21.75;102728.84;31464279;28;20067;-78
2022/03/19 11:32:32;;;;;;;3.03;2.43;;;;;;;9.07;21.43;102724.69;31467428;28;20055;-79
2022/03/19 11:47:34;;;;;;;5.43;2.70;;;;;;;9.30;21.46;102711.38;31465219;28;20048;-84
2022/03/19 12:02:59;;;;;;;5.07;2.70;;;;;;;9.92;20.40;102716.06;31477475;28;20055;-82
2022/03/19 12:18:24;;;;;;;9.53;2.80;;;;;;;7.12;22.42;102702.94;31496131;28;20130;-84
2022/03/19 12:33:33;;;;;;;9.37;3.13;;;;;;;5.49;22.91;102691.91;31487422;28;20534;-80
2022/03/19 12:48:39;;;;;;;9.37;2.87;;;;;;;5.00;23.46;102690.53;31481695;28;20057;-81
2022/03/19 13:03:42;;;;;;;3.57;1.93;;;;;;;4.74;24.12;102677.88;31470138;28;20052;-80
2022/03/19 13:18:47;;;;;;;4.80;2.00;;;;;;;4.51;23.88;102670.25;31482631;28;20060;-77
2022/03/19 13:33:50;;;;;;;4.10;2.17;;;;;;;4.52;24.48;102674.53;31459197;28;20036;-79
2022/03/19 13:49:17;;;;;;;4.00;1.87;;;;;;;4.54;23.89;102670.41;31465291;28;20055;-79
2022/03/19 14:04:19;;;;;;;;;;;;;;;4.28;23.76;102665.00;31470164;28;20044;-78
2022/03/19 14:19:22;;;;;;;3.07;1.60;;;;;;;4.28;24.41;102661.50;31467856;28;19928;-77
2022/03/19 14:34:24;;;;;;;4.97;1.70;;;;;;;4.27;24.95;102658.03;31470053;28;20049;-76
2022/03/19 14:49:26;;;;;;;2.20;1.40;;;;;;;4.21;24.48;102664.69;31467046;28;20052;-76
2022/03/19 15:04:28;;;;;;;5.40;2.33;;;;;;;3.87;25.36;102659.19;31456228;28;20420;-84
2022/03/19 15:19:48;;;;;;;4.70;2.20;;;;;;;3.63;25.77;102670.28;31478284;28;20476;-80
2022/03/19 15:34:51;;;;;;;5.40;2.67;;;;;;;3.37;26.99;102678.22;31477337;28;20501;-80
2022/03/19 15:49:53;;;;;;;6.43;2.93;;;;;;;3.22;26.60;102675.91;31485400;28;20076;-82
2022/03/19 16:04:55;;;;;;;5.70;2.47;;;;;;;3.04;26.95;102686.53;31485703;28;20485;-84
2022/03/19 16:20:05;;;;;;;5.77;2.50;;;;;;;2.85;27.17;102707.34;31486489;28;20041;-78
2022/03/19 16:35:08;;;;;;;5.33;2.60;;;;;;;2.66;27.77;102714.75;31508248;28;20048;-78
2022/03/19 16:50:11;;;;;;;6.77;3.67;;;;;;;2.42;28.38;102711.50;31499029;28;20492;-78
2022/03/19 17:05:17;;;;;;;6.03;2.77;;;;;;;2.00;30.34;102716.06;31493721;28;20101;-79
2022/03/19 17:20:19;;;;;;;4.93;2.20;;;;;;;1.58;31.97;102725.91;31489605;28;20044;-79
2022/03/19 17:35:22;;;;;;;5.43;3.07;;;;;;;1.49;32.37;102738.38;31492999;28;20052;-80
2022/03/19 17:50:25;;;;;;;13.70;3.87;;;;;;;1.31;33.73;102750.69;31490519;28;20056;-80
2022/03/19 18:05:28;;;;;;;16.97;6.20;;;;;;;1.02;34.39;102777.59;31472786;28;20137;-79
2022/03/19 18:20:32;;;;;;;5.00;3.63;;;;;;;0.96;35.84;102777.94;31498781;28;20052;-81
2022/03/19 18:35:35;;;;;;;6.90;3.70;;;;;;;0.80;38.34;102789.94;31495283;28;20110;-78
2022/03/19 18:50:38;;;;;;;9.80;3.87;;;;;;;0.56;37.09;102800.66;31506940;28;20052;-78
2022/03/19 19:05:40;;;;;;;10.07;4.67;;;;;;;0.31;38.25;102825.75;31493336;28;20049;-78
2022/03/19 19:20:43;;;;;;;11.63;4.70;;;;;;;0.10;38.80;102835.84;31503683;28;20518;-78
2022/03/19 19:35:46;;;;;;;10.47;5.53;;;;;;;-0.06;38.56;102826.38;31501954;28;20420;-78
2022/03/19 19:50:49;;;;;;;12.77;4.90;;;;;;;-0.26;40.15;102827.34;31498507;28;20044;-80
2022/03/19 20:05:55;;;;;;;7.37;4.30;;;;;;;-0.31;39.62;102823.91;31479763;28;20155;-79
2022/03/19 20:20:58;;;;;;;8.50;4.10;;;;;;;-0.59;40.50;102817.44;31495200;28;20139;-79
2022/03/19 20:36:00;;;;;;;8.73;4.10;;;;;;;-0.60;40.41;102826.50;31480330;28;20110;-78
2022/03/19 20:51:03;;;;;;;11.23;5.30;;;;;;;-0.57;41.04;102792.06;31509204;28;20044;-79
2022/03/19 21:06:06;;;;;;;12.83;5.30;;;;;;;-0.55;41.65;102789.91;31471294;28;20055;-79
2022/03/19 21:21:08;;;;;;;6.40;4.00;;;;;;;-0.63;42.09;102793.16;31513709;28;20056;-80
2022/03/19 21:36:13;;;;;;;8.67;4.90;;;;;;;-0.66;42.53;102784.91;31472143;28;20143;-78
2022/03/19 21:51:15;;;;;;;11.00;4.87;;;;;;;-0.79;42.48;102786.34;31463665;28;20052;-78
2022/03/19 22:06:18;;;;;;;12.17;5.13;;;;;;;-0.99;43.42;102778.47;31442614;28;20045;-80
2022/03/19 22:21:21;;;;;;;9.33;4.80;;;;;;;-1.18;43.80;102789.72;31441177;28;20547;-79
2022/03/19 22:36:23;;;;;;;9.43;4.53;;;;;;;-1.14;43.93;102785.44;31421784;28;20055;-79
2022/03/19 22:51:25;;;;;;;8.13;4.83;;;;;;;-1.15;43.43;102783.06;31448556;28;20056;-80
2022/03/19 23:06:28;;;;;;;11.40;5.53;;;;;;;-1.24;44.08;102753.53;31447348;28;20064;-79
2022/03/19 23:21:31;;;;;;;12.23;5.13;;;;;;;-1.24;44.19;102750.06;31449303;28;20632;-79
2022/03/19 23:36:33;;;;;;;15.47;5.67;;;;;;;-1.53;45.59;102741.91;31453237;28;20044;-80
2022/03/19 23:51:35;;;;;;;11.40;4.93;;;;;;;-1.55;46.19;102746.72;31449718;28;20048;-81
